createdAt,value
2022-10-04T00:01:56.881Z,12.2
2022-10-04T00:07:02.980Z,12.3
2022-10-04T00:12:09.071Z,12.2
2022-10-04T00:17:15.165Z,12.2
2022-10-04T00:22:21.289Z,12.1
2022-10-04T00:27:27.361Z,12
2022-10-04T00:32:33.475Z,11.8
2022-10-04T00:37:39.544Z,11.7
2022-10-04T00:42:44.658Z,11.6
2022-10-04T00:47:50.829Z,11.4
2022-10-04T00:52:56.862Z,11.2
2022-10-04T00:58:02.968Z,11
2022-10-04T01:03:09.044Z,10.9
2022-10-04T01:08:15.158Z,10.7
2022-10-04T01:13:21.283Z,10.6
2022-10-04T01:18:27.323Z,10.7
2022-10-04T01:23:33.430Z,10.6
2022-10-04T01:28:39.528Z,10.6
2022-10-04T01:33:45.636Z,10.6
2022-10-04T01:38:51.744Z,10.7
2022-10-04T01:43:57.807Z,10.7
2022-10-04T01:49:02.932Z,10.6
2022-10-04T01:54:09.004Z,10.6
2022-10-04T01:59:15.115Z,10.5
2022-10-04T02:04:21.192Z,10.4
2022-10-04T02:09:27.308Z,10.4
2022-10-04T02:14:33.388Z,10.3
2022-10-04T02:19:39.503Z,10.2
2022-10-04T02:24:45.593Z,10.1
2022-10-04T02:29:51.682Z,9.9
2022-10-04T02:34:57.781Z,9.8
2022-10-04T02:40:03.876Z,9.8
2022-10-04T02:45:09.977Z,9.7
2022-10-04T02:50:16.044Z,9.6
2022-10-04T02:55:21.160Z,9.6
2022-10-04T03:00:27.268Z,9.6
2022-10-04T03:05:33.363Z,9.6
2022-10-04T03:10:39.456Z,9.6
2022-10-04T03:15:45.549Z,9.6
2022-10-04T03:20:51.683Z,9.6
2022-10-04T03:25:57.734Z,9.6
2022-10-04T03:31:03.830Z,9.6
2022-10-04T03:36:09.958Z,9.6
2022-10-04T03:41:16.017Z,9.6
2022-10-04T03:46:22.128Z,9.5
2022-10-04T03:51:28.227Z,9.5
2022-10-04T03:56:34.319Z,9.5
2022-10-04T04:01:39.428Z,9.4
2022-10-04T04:06:45.518Z,9.4
2022-10-04T04:11:51.618Z,9.4
2022-10-04T04:16:57.703Z,9.4
2022-10-04T04:22:03.803Z,9.3
2022-10-04T04:27:09.904Z,9.3
2022-10-04T04:32:15.988Z,9.4
2022-10-04T04:37:22.091Z,9.4
2022-10-04T04:42:28.186Z,9.4
2022-10-04T04:47:34.286Z,9.5
2022-10-04T04:52:40.370Z,9.5
2022-10-04T04:57:46.460Z,9.6
2022-10-04T05:02:52.573Z,9.7
2022-10-04T05:07:57.665Z,9.7
2022-10-04T05:13:03.771Z,9.8
2022-10-04T05:18:09.894Z,9.8
2022-10-04T05:23:15.959Z,9.9
2022-10-04T05:28:22.045Z,9.9
2022-10-04T05:33:28.149Z,9.9
2022-10-04T05:38:34.252Z,10
2022-10-04T05:43:40.382Z,10.1
2022-10-04T05:48:46.445Z,10.2
2022-10-04T05:53:52.520Z,10.4
2022-10-04T05:58:58.632Z,10.5
2022-10-04T06:04:04.724Z,10.7
2022-10-04T06:09:10.856Z,10.8
2022-10-04T06:14:15.959Z,11
2022-10-04T06:19:22.019Z,11.2
2022-10-04T06:24:28.115Z,11.3
2022-10-04T06:29:34.251Z,11.4
2022-10-04T06:34:40.319Z,11.5
2022-10-04T06:39:46.425Z,11.7
2022-10-04T06:44:52.501Z,11.8
2022-10-04T06:49:58.596Z,11.9
2022-10-04T06:55:04.696Z,12.1
2022-10-04T07:00:10.812Z,12.3
2022-10-04T07:05:16.872Z,12.4
2022-10-04T07:10:22.985Z,12.5
2022-10-04T07:15:29.073Z,12.7
2022-10-04T07:20:34.231Z,12.8
2022-10-04T07:25:40.313Z,12.9
2022-10-04T07:30:46.371Z,13
2022-10-04T07:35:52.559Z,13.1
2022-10-04T07:40:58.568Z,13.1
2022-10-04T07:46:04.675Z,13.3
2022-10-04T07:51:10.763Z,13.4
2022-10-04T07:56:16.842Z,13.5
2022-10-04T08:01:22.961Z,13.7
2022-10-04T08:06:29.028Z,13.7
2022-10-04T08:11:35.149Z,13.8
2022-10-04T08:16:41.210Z,13.9
2022-10-04T08:21:47.324Z,14
2022-10-04T08:26:52.444Z,14.1
2022-10-04T08:31:58.525Z,14.3
2022-10-04T08:37:04.611Z,14.5
2022-10-04T08:42:10.767Z,14.7
2022-10-04T08:47:26.017Z,15
2022-10-04T08:52:22.998Z,15.2
2022-10-04T08:57:28.092Z,15.4
2022-10-04T09:02:34.117Z,15.7
2022-10-04T09:07:40.270Z,15.8
2022-10-04T09:12:46.309Z,15.7
2022-10-04T09:17:52.394Z,16
2022-10-04T09:22:58.479Z,16.5
2022-10-04T09:28:04.700Z,17.1
2022-10-04T09:33:10.690Z,17
2022-10-04T09:38:16.816Z,18.1
2022-10-04T09:43:22.857Z,20.4
2022-10-04T09:48:28.957Z,22.2
2022-10-04T09:53:35.053Z,23.3
2022-10-04T09:58:41.226Z,23.3
2022-10-04T10:03:46.272Z,24.2
2022-10-04T10:08:52.350Z,25.4
2022-10-04T10:13:58.519Z,25.6
2022-10-04T10:19:04.658Z,26.3
2022-10-04T10:24:10.668Z,26.3
2022-10-04T10:29:16.802Z,26.1
2022-10-04T10:34:22.827Z,26.2
2022-10-04T10:39:28.919Z,26.1
2022-10-04T10:44:34.998Z,25.9
2022-10-04T10:49:41.115Z,23.5
2022-10-04T10:54:47.220Z,21.6
2022-10-04T10:59:53.310Z,20.9
2022-10-04T11:04:59.390Z,20.7
2022-10-04T11:10:04.528Z,20
2022-10-04T11:15:10.596Z,19.7
2022-10-04T11:20:16.697Z,19.1
2022-10-04T11:25:22.811Z,18.6
2022-10-04T11:30:28.875Z,18.4
2022-10-04T11:35:35.000Z,18.4
2022-10-04T11:40:41.094Z,18.5
2022-10-04T11:45:47.148Z,18.3
2022-10-04T11:50:53.256Z,18.4
2022-10-04T11:55:59.343Z,18.7
2022-10-04T12:01:05.440Z,18.8
2022-10-04T12:06:11.583Z,18.7
2022-10-04T12:11:17.669Z,18.6
2022-10-04T12:16:22.737Z,18.7
2022-10-04T12:21:28.833Z,18.5
2022-10-04T12:26:35.050Z,18.6
2022-10-04T12:31:41.017Z,18.7
2022-10-04T12:36:47.183Z,18.9
2022-10-04T12:41:53.271Z,18.9
2022-10-04T12:46:59.452Z,18.8
2022-10-04T12:52:05.445Z,18.9
2022-10-04T12:57:11.586Z,18.9
2022-10-04T13:02:17.589Z,19
2022-10-04T13:07:23.801Z,19.5
2022-10-04T13:12:29.770Z,19.2
2022-10-04T13:17:35.863Z,19
2022-10-04T13:22:40.979Z,19
2022-10-04T13:27:47.066Z,19
2022-10-04T13:32:53.218Z,18.9
2022-10-04T13:37:59.258Z,18.9
2022-10-04T13:43:05.403Z,18.9
2022-10-04T13:48:11.439Z,18.8
2022-10-04T13:53:17.571Z,18.8
2022-10-04T13:58:23.655Z,18.7
2022-10-04T14:03:29.826Z,18.7
2022-10-04T14:08:35.822Z,18.7
2022-10-04T14:13:41.998Z,18.6
2022-10-04T14:18:48.050Z,18.7
2022-10-04T14:23:54.107Z,18.9
2022-10-04T14:28:59.268Z,19.1
2022-10-04T14:34:05.332Z,19.4
2022-10-04T14:39:11.406Z,21.5
2022-10-04T14:44:17.529Z,22
2022-10-04T14:49:23.601Z,21.1
2022-10-04T14:54:29.741Z,22.5
2022-10-04T14:59:35.780Z,22.9
2022-10-04T15:04:41.924Z,22
2022-10-04T15:09:48.072Z,20.5
2022-10-04T15:14:54.062Z,19.2
2022-10-04T15:20:00.163Z,18.7
2022-10-04T15:25:06.260Z,18.4
2022-10-04T15:30:12.366Z,18.3
2022-10-04T15:35:17.467Z,18.1
2022-10-04T15:40:23.566Z,17.9
2022-10-04T15:45:29.739Z,17.8
2022-10-04T15:50:35.763Z,17.9
2022-10-04T15:55:41.878Z,17.8
2022-10-04T16:00:47.933Z,17.7
2022-10-04T16:05:54.025Z,17.4
2022-10-04T16:11:00.128Z,17.1
2022-10-04T16:16:06.233Z,17
2022-10-04T16:21:12.367Z,16.8
2022-10-04T16:26:18.408Z,16.7
2022-10-04T16:31:24.579Z,16.5
2022-10-04T16:36:30.596Z,16.3
2022-10-04T16:41:35.701Z,16.1
2022-10-04T16:46:41.932Z,15.8
2022-10-04T16:51:47.901Z,15.4
2022-10-04T16:56:53.999Z,14.9
2022-10-04T17:02:00.084Z,14.5
2022-10-04T17:07:06.240Z,14.2
2022-10-04T17:12:12.366Z,14.2
2022-10-04T17:17:18.424Z,14.4
2022-10-04T17:22:24.567Z,14.4
2022-10-04T17:27:30.618Z,14.4
2022-10-04T17:32:36.664Z,14.4
2022-10-04T17:37:42.770Z,14.1
2022-10-04T17:42:48.840Z,14
2022-10-04T17:47:53.960Z,14
2022-10-04T17:53:00.054Z,14
2022-10-04T17:58:06.268Z,13.9
2022-10-04T18:03:12.273Z,13.9
2022-10-04T18:08:18.322Z,13.9
2022-10-04T18:13:24.431Z,14
2022-10-04T18:18:30.526Z,13.9
2022-10-04T18:23:36.619Z,13.6
2022-10-04T18:28:42.701Z,13.3
2022-10-04T18:33:48.790Z,13.2
2022-10-04T18:38:54.903Z,13.1
2022-10-04T18:44:01.000Z,13
2022-10-04T18:49:07.097Z,12.9
2022-10-04T18:54:12.236Z,12.8
2022-10-04T18:59:18.297Z,12.7
2022-10-04T19:04:24.398Z,12.7
2022-10-04T19:09:30.489Z,12.7
2022-10-04T19:14:36.582Z,12.8
2022-10-04T19:19:42.671Z,12.7
2022-10-04T19:24:48.779Z,12.6
2022-10-04T19:29:54.862Z,12.4
2022-10-04T19:35:00.960Z,12.1
2022-10-04T19:40:07.052Z,12
2022-10-04T19:45:13.205Z,12
2022-10-04T19:50:19.233Z,11.8
2022-10-04T19:55:25.390Z,11.9
2022-10-04T20:00:30.454Z,12
2022-10-04T20:05:36.582Z,12
2022-10-04T20:10:42.671Z,12
2022-10-04T20:15:48.738Z,11.9
2022-10-04T20:20:54.825Z,12
2022-10-04T20:26:00.920Z,12
2022-10-04T20:31:07.020Z,12
2022-10-04T20:36:13.122Z,12
2022-10-04T20:41:19.222Z,12
2022-10-04T20:46:25.313Z,12
2022-10-04T20:51:31.393Z,11.9
2022-10-04T20:56:37.592Z,11.9
2022-10-04T21:01:43.580Z,11.9
2022-10-04T21:06:48.701Z,11.9
2022-10-04T21:11:54.844Z,11.8
2022-10-04T21:17:00.893Z,11.6
2022-10-04T21:22:07.000Z,11.3
2022-10-04T21:27:13.176Z,11.1
2022-10-04T21:32:19.221Z,10.7
2022-10-04T21:37:25.282Z,10.5
2022-10-04T21:42:31.386Z,10.4
2022-10-04T21:47:37.478Z,10.4
2022-10-04T21:52:43.565Z,10.5
2022-10-04T21:57:49.646Z,10.8
2022-10-04T22:02:55.762Z,11.1
2022-10-04T22:08:01.890Z,11.2
2022-10-04T22:13:07.042Z,11.3
2022-10-04T22:18:13.091Z,11.3
2022-10-04T22:23:19.171Z,11.3
2022-10-04T22:28:25.252Z,11.3
2022-10-04T22:33:31.332Z,11.2
2022-10-04T22:38:37.493Z,11.2
2022-10-04T22:43:43.538Z,11.2
2022-10-04T22:48:49.627Z,11.2
2022-10-04T22:53:55.728Z,11.2
2022-10-04T22:59:01.823Z,11.1
2022-10-04T23:04:07.909Z,11
2022-10-04T23:09:14.010Z,10.9
2022-10-04T23:14:20.101Z,10.9
2022-10-04T23:19:25.206Z,10.9
2022-10-04T23:24:31.307Z,10.8
2022-10-04T23:29:37.414Z,10.7
2022-10-04T23:34:43.508Z,10.6
2022-10-04T23:39:49.601Z,10.4
2022-10-04T23:44:55.690Z,10.5
2022-10-04T23:50:01.821Z,10.5
2022-10-04T23:55:07.893Z,10.5
